createdAt,value
2024-05-09T00:01:20.072Z,23.10
2024-05-09T00:03:51.980Z,23.27
2024-05-09T00:06:26.999Z,23.80
2024-05-09T00:08:58.459Z,25.52
2024-05-09T00:11:30.156Z,22.63
2024-05-09T00:14:01.759Z,24.45
2024-05-09T00:16:33.216Z,24.42
2024-05-09T00:19:05.024Z,23.80
2024-05-09T00:21:44.569Z,24.17
2024-05-09T00:24:16.133Z,25.80
2024-05-09T00:26:47.598Z,24.98
2024-05-09T00:29:19.228Z,25.48
2024-05-09T00:31:50.871Z,27.50
2024-05-09T00:34:22.780Z,27.95
2024-05-09T00:36:57.500Z,26.05
2024-05-09T00:39:29.316Z,26.30
2024-05-09T00:42:01.380Z,27.50
2024-05-09T00:44:32.990Z,28.98
2024-05-09T00:47:04.605Z,29.13
2024-05-09T00:49:36.593Z,28.75
2024-05-09T00:52:12.710Z,29.67
2024-05-09T00:54:44.319Z,27.85
2024-05-09T00:57:15.278Z,28.95
2024-05-09T00:59:46.394Z,26.98
2024-05-09T01:02:18.573Z,27.30
2024-05-09T01:04:49.874Z,28.48
2024-05-09T01:07:24.616Z,26.02
2024-05-09T01:09:57.197Z,27.42
2024-05-09T01:17:30.469Z,24.02
2024-05-09T01:20:02.714Z,25.65
2024-05-09T01:22:39.472Z,25.58
2024-05-09T01:25:14.503Z,26.95
2024-05-09T01:27:46.163Z,30.80
2024-05-09T01:30:24.274Z,28.13
2024-05-09T01:32:59.450Z,30.00
2024-05-09T01:35:31.216Z,29.35
2024-05-09T01:38:02.968Z,23.38
2024-05-09T01:40:39.998Z,24.15
2024-05-09T01:43:12.407Z,26.40
2024-05-09T01:45:44.387Z,26.38
2024-05-09T01:48:16.266Z,23.48
2024-05-09T01:50:48.011Z,23.88
2024-05-09T01:53:19.742Z,24.33
2024-05-09T01:55:54.487Z,22.30
2024-05-09T01:58:25.511Z,21.85
2024-05-09T02:00:56.713Z,20.40
2024-05-09T02:03:27.769Z,19.92
2024-05-09T02:05:58.880Z,16.52
2024-05-09T02:08:30.243Z,19.55
2024-05-09T02:11:04.658Z,15.40
2024-05-09T02:13:35.687Z,15.25
2024-05-09T02:16:07.062Z,13.65
2024-05-09T02:18:38.110Z,17.05
2024-05-09T02:21:09.258Z,21.98
2024-05-09T02:23:40.263Z,14.50
2024-05-09T02:26:14.344Z,23.02
2024-05-09T02:28:45.523Z,21.38
2024-05-09T02:31:16.571Z,23.48
2024-05-09T02:33:47.832Z,17.85
2024-05-09T02:36:19.008Z,20.90
2024-05-09T02:38:49.952Z,16.10
2024-05-09T02:41:23.882Z,19.38
2024-05-09T02:43:54.856Z,14.90
2024-05-09T02:46:25.992Z,14.98
2024-05-09T02:48:57.043Z,13.95
2024-05-09T02:51:28.233Z,11.73
2024-05-09T02:53:59.189Z,13.50
2024-05-09T02:56:33.308Z,14.85
2024-05-09T02:59:04.396Z,13.15
2024-05-09T03:01:35.517Z,17.00
2024-05-09T03:04:07.027Z,17.17
2024-05-09T03:06:42.866Z,16.63
2024-05-09T03:09:14.559Z,15.43
2024-05-09T03:11:49.584Z,16.17
2024-05-09T03:14:22.051Z,16.77
2024-05-09T03:16:53.775Z,17.73
2024-05-09T03:19:25.318Z,17.50
2024-05-09T03:21:56.863Z,14.90
2024-05-09T03:24:28.374Z,17.88
2024-05-09T03:27:03.184Z,18.02
2024-05-09T03:29:34.860Z,17.15
2024-05-09T03:32:07.075Z,16.90
2024-05-09T03:34:40.742Z,20.50
2024-05-09T03:37:12.347Z,19.02
2024-05-09T03:39:44.055Z,19.55
2024-05-09T03:42:18.775Z,19.83
2024-05-09T03:44:50.410Z,18.45
2024-05-09T03:47:22.164Z,20.38
2024-05-09T03:49:57.107Z,16.02
2024-05-09T03:52:31.144Z,17.10
2024-05-09T03:55:02.840Z,19.10
2024-05-09T03:57:37.571Z,20.33
2024-05-09T04:00:17.669Z,12.90
2024-05-09T04:02:54.434Z,13.10
2024-05-09T04:05:27.322Z,11.95
2024-05-09T04:07:58.974Z,12.13
2024-05-09T04:10:34.112Z,12.45
2024-05-09T04:13:09.067Z,13.23
2024-05-09T04:15:40.045Z,14.30
2024-05-09T04:18:11.277Z,13.75
2024-05-09T04:20:42.428Z,13.98
2024-05-09T04:23:14.928Z,14.38
2024-05-09T04:25:46.764Z,15.05
2024-05-09T04:28:21.158Z,15.32
2024-05-09T04:30:52.066Z,13.68
2024-05-09T04:33:23.203Z,14.68
2024-05-09T04:35:54.283Z,14.10
2024-05-09T04:38:25.396Z,14.98
2024-05-09T04:40:56.400Z,14.38
2024-05-09T04:43:30.405Z,14.57
2024-05-09T04:46:01.335Z,14.13
2024-05-09T04:48:32.563Z,14.45
2024-05-09T04:51:04.713Z,14.55
2024-05-09T04:53:35.673Z,15.27
2024-05-09T04:56:07.022Z,14.70
2024-05-09T04:58:41.639Z,13.88
2024-05-09T05:01:13.196Z,12.13
2024-05-09T05:03:45.083Z,13.25
2024-05-09T05:06:18.722Z,13.90
2024-05-09T05:08:50.247Z,12.25
2024-05-09T05:11:21.786Z,14.38
2024-05-09T05:13:55.794Z,14.18
2024-05-09T05:16:27.256Z,13.60
2024-05-09T05:18:58.421Z,12.63
2024-05-09T05:21:29.621Z,13.07
2024-05-09T05:24:00.612Z,11.48
2024-05-09T05:26:31.748Z,11.85
2024-05-09T05:29:07.496Z,11.95
2024-05-09T05:31:38.499Z,11.60
2024-05-09T05:34:09.490Z,12.77
2024-05-09T05:36:40.569Z,13.55
2024-05-09T05:39:11.598Z,14.90
2024-05-09T05:41:42.623Z,15.23
2024-05-09T05:44:17.663Z,10.30
2024-05-09T05:46:48.687Z,12.10
2024-05-09T05:49:19.948Z,12.70
2024-05-09T05:51:51.059Z,13.10
2024-05-09T05:54:21.950Z,12.32
2024-05-09T05:56:52.985Z,11.57
2024-05-09T05:59:30.862Z,12.95
2024-05-09T06:02:02.442Z,11.63
2024-05-09T06:04:34.029Z,11.27
2024-05-09T06:07:05.573Z,11.30
2024-05-09T06:09:37.233Z,11.02
2024-05-09T06:12:09.488Z,11.27
2024-05-09T06:14:44.273Z,9.82
2024-05-09T06:17:16.214Z,9.73
2024-05-09T06:19:48.058Z,7.15
2024-05-09T06:22:19.812Z,7.53
2024-05-09T06:24:51.515Z,7.60
2024-05-09T06:27:23.343Z,6.47
2024-05-09T06:29:58.031Z,7.38
2024-05-09T06:32:29.744Z,6.78
2024-05-09T06:35:06.904Z,7.25
2024-05-09T06:37:38.765Z,7.35
2024-05-09T06:40:12.522Z,8.57
2024-05-09T06:42:46.225Z,7.55
2024-05-09T06:45:20.991Z,8.07
2024-05-09T06:47:52.650Z,6.78
2024-05-09T06:50:28.275Z,7.38
2024-05-09T06:53:03.268Z,6.53
2024-05-09T06:55:34.795Z,6.60
2024-05-09T06:58:07.723Z,6.35
2024-05-09T07:00:42.449Z,6.03
2024-05-09T07:03:16.478Z,6.45
2024-05-09T07:05:49.983Z,6.45
2024-05-09T07:08:21.303Z,6.82
2024-05-09T07:10:52.604Z,6.80
2024-05-09T07:13:23.900Z,7.22
2024-05-09T07:15:57.898Z,6.65
2024-05-09T07:18:29.621Z,6.63
2024-05-09T07:21:00.835Z,7.43
2024-05-09T07:23:31.780Z,10.10
2024-05-09T07:26:02.911Z,8.40
2024-05-09T07:28:33.852Z,11.93
2024-05-09T07:31:08.015Z,11.07
2024-05-09T07:33:38.967Z,8.90
2024-05-09T07:36:10.278Z,8.13
2024-05-09T07:38:41.165Z,8.38
2024-05-09T07:41:12.173Z,7.88
2024-05-09T07:43:43.050Z,7.88
2024-05-09T07:47:14.314Z,7.68
2024-05-09T07:54:16.287Z,7.55
2024-05-09T07:56:47.461Z,7.78
2024-05-09T07:59:18.977Z,8.02
2024-05-09T08:01:53.859Z,7.25
2024-05-09T08:04:26.571Z,7.40
2024-05-09T08:07:01.442Z,13.77
2024-05-09T08:09:33.881Z,10.25
2024-05-09T08:12:06.523Z,10.00
2024-05-09T08:14:38.902Z,11.82
2024-05-09T08:17:14.343Z,11.25
2024-05-09T08:19:45.953Z,12.30
2024-05-09T08:22:18.658Z,10.93
2024-05-09T08:24:50.335Z,9.13
2024-05-09T08:27:21.831Z,9.85
2024-05-09T08:29:53.302Z,9.30
2024-05-09T08:32:29.019Z,10.30
2024-05-09T08:35:00.629Z,11.80
2024-05-09T08:37:36.833Z,11.73
2024-05-09T08:40:16.987Z,12.13
2024-05-09T08:42:56.571Z,10.85
2024-05-09T08:45:29.067Z,10.43
2024-05-09T08:48:07.164Z,10.50
2024-05-09T08:50:42.584Z,11.93
2024-05-09T08:53:14.422Z,10.90
2024-05-09T08:55:49.347Z,11.45
2024-05-09T08:58:21.515Z,12.38
2024-05-09T09:00:53.164Z,12.02
2024-05-09T09:03:30.216Z,11.05
2024-05-09T09:06:03.713Z,10.73
2024-05-09T09:08:35.285Z,11.25
2024-05-09T09:11:07.314Z,10.55
2024-05-09T09:13:38.809Z,10.70
2024-05-09T09:16:10.282Z,9.15
2024-05-09T09:18:51.431Z,10.73
2024-05-09T09:21:22.470Z,13.48
2024-05-09T09:23:53.412Z,13.93
2024-05-09T09:26:25.234Z,13.98
2024-05-09T09:28:56.473Z,12.05
2024-05-09T09:31:27.599Z,11.05
2024-05-09T09:34:06.988Z,11.02
2024-05-09T09:36:38.917Z,10.18
2024-05-09T09:39:13.205Z,11.07
2024-05-09T09:41:46.715Z,10.45
2024-05-09T09:44:18.736Z,10.43
2024-05-09T09:46:49.897Z,7.38
2024-05-09T09:49:24.985Z,7.28
2024-05-09T09:51:56.094Z,6.72
2024-05-09T09:54:27.636Z,6.65
2024-05-09T09:56:58.825Z,7.75
2024-05-09T09:59:32.010Z,7.15
2024-05-09T10:02:03.754Z,6.80
2024-05-09T10:04:39.891Z,6.32
2024-05-09T10:07:12.972Z,6.57
2024-05-09T10:09:44.745Z,6.35
2024-05-09T10:12:17.153Z,6.25
2024-05-09T10:17:22.521Z,5.97
2024-05-09T10:20:14.778Z,6.05
2024-05-09T10:22:53.219Z,5.90
2024-05-09T10:25:25.370Z,5.88
2024-05-09T10:27:58.727Z,5.32
2024-05-09T10:30:35.731Z,6.35
2024-05-09T10:33:13.385Z,5.47
2024-05-09T10:35:54.332Z,9.20
2024-05-09T10:38:25.893Z,9.75
2024-05-09T10:40:59.845Z,9.10
2024-05-09T10:43:31.642Z,8.90
2024-05-09T10:46:03.256Z,9.35
2024-05-09T10:48:34.992Z,9.68
2024-05-09T10:51:09.818Z,12.52
2024-05-09T10:53:44.727Z,10.50
2024-05-09T10:56:17.534Z,10.43
2024-05-09T10:58:49.687Z,10.20
2024-05-09T11:01:20.853Z,11.95
2024-05-09T11:03:54.503Z,12.88
2024-05-09T11:06:28.785Z,13.73
2024-05-09T11:09:00.045Z,12.93
2024-05-09T11:11:31.608Z,13.52
2024-05-09T11:14:02.568Z,12.73
2024-05-09T11:16:34.101Z,13.45
2024-05-09T11:19:05.950Z,12.82
2024-05-09T11:21:40.365Z,10.25
2024-05-09T11:24:11.829Z,11.38
2024-05-09T11:26:42.875Z,11.43
2024-05-09T11:29:15.745Z,7.60
2024-05-09T11:31:51.214Z,9.65
2024-05-09T11:34:22.315Z,8.95
2024-05-09T11:36:56.219Z,9.10
2024-05-09T11:39:27.398Z,9.13
2024-05-09T11:41:58.425Z,9.05
2024-05-09T11:44:29.801Z,9.48
2024-05-09T11:47:00.758Z,11.05
2024-05-09T11:49:31.904Z,10.55
2024-05-09T11:52:06.370Z,11.05
2024-05-09T11:54:37.582Z,15.43
2024-05-09T11:57:11.049Z,14.65
2024-05-09T11:59:42.699Z,20.33
2024-05-09T12:02:14.421Z,20.35
2024-05-09T12:04:46.199Z,20.05
2024-05-09T12:07:21.132Z,18.17
2024-05-09T12:09:55.383Z,22.90
2024-05-09T12:12:26.919Z,20.58
2024-05-09T12:14:58.400Z,20.52
2024-05-09T12:17:30.609Z,19.00
2024-05-09T12:20:04.227Z,20.60
2024-05-09T12:22:39.899Z,14.63
2024-05-09T12:25:11.078Z,16.00
2024-05-09T12:27:42.170Z,17.42
2024-05-09T12:30:20.762Z,24.38
2024-05-09T12:32:59.700Z,23.98
2024-05-09T12:35:33.883Z,18.58
2024-05-09T12:38:08.058Z,17.20
2024-05-09T12:40:39.604Z,12.55
2024-05-09T12:43:11.539Z,10.30
2024-05-09T12:45:43.162Z,10.60
2024-05-09T12:48:15.018Z,11.05
2024-05-09T12:50:46.382Z,11.10
2024-05-09T12:53:20.481Z,13.50
2024-05-09T12:55:56.866Z,11.48
2024-05-09T12:58:31.754Z,11.13
2024-05-09T13:01:03.491Z,11.73
2024-05-09T13:03:35.300Z,11.55
2024-05-09T13:06:07.093Z,11.02
2024-05-09T13:08:41.918Z,11.95
2024-05-09T13:11:13.618Z,11.52
2024-05-09T13:13:45.426Z,10.23
2024-05-09T13:16:17.433Z,12.50
2024-05-09T13:18:49.265Z,10.02
2024-05-09T13:21:20.404Z,11.52
2024-05-09T13:23:55.712Z,10.73
2024-05-09T13:26:28.171Z,10.90
2024-05-09T13:28:59.212Z,9.50
2024-05-09T13:31:30.332Z,10.10
2024-05-09T13:34:01.733Z,8.27
2024-05-09T13:36:32.932Z,9.32
2024-05-09T13:39:09.401Z,8.02
2024-05-09T13:41:40.534Z,8.82
2024-05-09T13:44:11.615Z,8.57
2024-05-09T13:46:42.531Z,8.13
2024-05-09T13:49:18.135Z,7.30
2024-05-09T13:51:49.386Z,6.68
2024-05-09T13:54:23.490Z,5.85
2024-05-09T13:56:54.474Z,5.80
2024-05-09T13:59:26.074Z,7.20
2024-05-09T14:02:00.737Z,7.00
2024-05-09T14:04:32.625Z,6.30
2024-05-09T14:07:04.464Z,7.82
2024-05-09T14:09:39.484Z,7.63
2024-05-09T14:12:11.766Z,7.53
2024-05-09T14:14:43.555Z,7.07
2024-05-09T14:17:15.181Z,6.47
2024-05-09T14:19:46.893Z,6.90
2024-05-09T14:22:18.334Z,6.40
2024-05-09T14:24:52.436Z,5.03
2024-05-09T14:27:24.230Z,5.20
2024-05-09T14:29:55.808Z,4.55
2024-05-09T14:32:27.246Z,4.85
2024-05-09T14:34:58.442Z,4.75
2024-05-09T14:37:29.578Z,4.43
2024-05-09T14:40:06.891Z,5.10
2024-05-09T14:42:38.252Z,7.93
2024-05-09T14:45:09.956Z,4.25
2024-05-09T14:47:41.473Z,5.32
2024-05-09T14:50:23.678Z,6.07
2024-05-09T14:52:59.750Z,7.10
2024-05-09T14:55:39.566Z,8.23
2024-05-09T14:58:12.809Z,7.95
2024-05-09T15:00:50.870Z,9.23
2024-05-09T15:03:23.768Z,9.43
2024-05-09T15:05:58.443Z,9.05
2024-05-09T15:08:33.024Z,7.40
2024-05-09T15:11:07.930Z,6.05
2024-05-09T15:13:39.759Z,6.60
2024-05-09T15:16:11.677Z,6.25
2024-05-09T15:18:44.042Z,6.40
2024-05-09T15:21:15.748Z,6.10
2024-05-09T15:23:47.736Z,5.15
2024-05-09T15:26:22.811Z,5.55
2024-05-09T15:28:54.470Z,5.85
2024-05-09T15:31:26.342Z,4.88
2024-05-09T15:33:58.155Z,5.07
2024-05-09T15:36:30.293Z,4.53
2024-05-09T15:39:01.853Z,4.30
2024-05-09T15:41:36.548Z,5.68
2024-05-09T15:44:08.112Z,6.97
2024-05-09T15:46:39.662Z,6.15
2024-05-09T15:49:11.900Z,7.45
2024-05-09T15:51:43.663Z,6.82
2024-05-09T15:54:15.137Z,6.78
2024-05-09T15:56:52.449Z,6.68
2024-05-09T15:59:23.456Z,5.50
2024-05-09T16:01:54.505Z,4.47
2024-05-09T16:04:25.633Z,4.85
2024-05-09T16:06:56.680Z,4.30
2024-05-09T16:09:27.666Z,3.75
2024-05-09T16:12:01.575Z,3.95
2024-05-09T16:14:32.448Z,5.25
2024-05-09T16:17:03.566Z,4.55
2024-05-09T16:19:34.639Z,3.72
2024-05-09T16:22:06.011Z,3.50
2024-05-09T16:24:37.840Z,3.60
2024-05-09T16:27:12.713Z,3.53
2024-05-09T16:29:44.243Z,7.30
2024-05-09T16:32:15.895Z,5.72
2024-05-09T16:34:47.556Z,5.90
2024-05-09T16:37:19.257Z,5.88
2024-05-09T16:39:50.974Z,3.47
2024-05-09T16:42:26.138Z,3.58
2024-05-09T16:44:57.620Z,4.00
2024-05-09T16:47:29.451Z,3.13
2024-05-09T16:50:01.030Z,3.42
2024-05-09T16:52:32.691Z,3.05
2024-05-09T16:55:04.441Z,3.88
2024-05-09T16:57:38.731Z,3.80
2024-05-09T17:00:18.083Z,3.63
2024-05-09T17:02:56.711Z,3.72
2024-05-09T17:05:30.121Z,3.33
2024-05-09T17:08:01.404Z,3.53
2024-05-09T17:10:34.565Z,4.07
2024-05-09T17:13:09.650Z,4.70
2024-05-09T17:15:40.621Z,4.20
2024-05-09T17:18:11.661Z,4.63
2024-05-09T17:20:42.606Z,4.88
2024-05-09T17:23:17.268Z,4.10
2024-05-09T17:25:50.100Z,4.63
2024-05-09T17:28:24.755Z,4.93
2024-05-09T17:30:56.394Z,4.63
2024-05-09T17:33:27.994Z,5.30
2024-05-09T17:35:59.606Z,4.80
2024-05-09T17:38:31.195Z,4.50
2024-05-09T17:41:02.768Z,4.65
2024-05-09T17:43:37.442Z,4.43
2024-05-09T17:46:09.899Z,4.70
2024-05-09T17:48:41.565Z,4.65
2024-05-09T17:51:13.181Z,5.60
2024-05-09T17:53:44.717Z,5.45
2024-05-09T17:56:16.273Z,4.95
2024-05-09T17:58:50.553Z,5.78
2024-05-09T18:01:21.540Z,6.47
2024-05-09T18:03:52.658Z,6.80
2024-05-09T18:06:23.592Z,6.03
2024-05-09T18:08:54.613Z,5.22
2024-05-09T18:11:25.768Z,5.10
2024-05-09T18:14:00.569Z,5.40
2024-05-09T18:16:31.496Z,5.43
2024-05-09T18:19:02.831Z,4.20
2024-05-09T18:21:34.177Z,4.03
2024-05-09T18:24:05.240Z,4.63
2024-05-09T18:26:38.315Z,4.68
2024-05-09T18:29:13.094Z,4.63
2024-05-09T18:31:45.028Z,4.55
2024-05-09T18:34:16.584Z,4.22
2024-05-09T18:36:49.146Z,4.70
2024-05-09T18:39:21.098Z,4.45
2024-05-09T18:41:52.593Z,4.78
2024-05-09T18:44:28.606Z,4.50
2024-05-09T18:47:00.153Z,5.43
2024-05-09T18:49:31.902Z,6.55
2024-05-09T18:52:03.547Z,6.45
2024-05-09T18:54:35.383Z,4.95
2024-05-09T18:57:06.607Z,5.20
2024-05-09T18:59:40.590Z,4.78
2024-05-09T19:02:11.834Z,5.00
2024-05-09T19:04:43.154Z,4.60
2024-05-09T19:07:15.076Z,4.28
2024-05-09T19:09:49.458Z,3.92
2024-05-09T19:12:20.981Z,4.03
2024-05-09T19:14:55.621Z,3.92
2024-05-09T19:17:27.318Z,5.25
2024-05-09T19:19:58.989Z,6.20
2024-05-09T19:22:30.635Z,7.68
2024-05-09T19:25:02.448Z,7.68
2024-05-09T19:27:34.566Z,7.18
2024-05-09T19:30:17.665Z,7.97
2024-05-09T19:32:57.417Z,9.23
2024-05-09T19:35:29.085Z,7.55
2024-05-09T19:38:00.643Z,5.60
2024-05-09T19:40:34.098Z,5.38
2024-05-09T19:43:07.380Z,6.57
2024-05-09T19:45:42.246Z,6.07
2024-05-09T19:48:14.124Z,5.72
2024-05-09T19:50:48.260Z,6.10
2024-05-09T19:53:21.282Z,6.13
2024-05-09T19:55:53.022Z,5.32
2024-05-09T19:58:24.093Z,4.88
2024-05-09T20:00:58.278Z,4.43
2024-05-09T20:03:29.425Z,4.40
2024-05-09T20:06:00.553Z,4.15
2024-05-09T20:08:31.567Z,4.40
2024-05-09T20:11:02.498Z,4.45
2024-05-09T20:13:33.569Z,5.00
2024-05-09T20:16:08.408Z,4.32
2024-05-09T20:18:39.562Z,4.22
2024-05-09T20:21:10.572Z,4.70
2024-05-09T20:23:41.575Z,4.53
2024-05-09T20:26:12.631Z,4.70
2024-05-09T20:28:46.529Z,4.85
2024-05-09T20:31:23.029Z,4.63
2024-05-09T20:33:55.413Z,4.60
2024-05-09T20:36:26.912Z,4.80
2024-05-09T20:38:58.370Z,4.78
2024-05-09T20:41:33.637Z,4.10
2024-05-09T20:44:06.489Z,4.18
2024-05-09T20:46:41.130Z,4.85
2024-05-09T20:49:12.913Z,4.85
2024-05-09T20:51:44.581Z,4.43
2024-05-09T20:54:18.745Z,5.32
2024-05-09T20:56:50.403Z,5.68
2024-05-09T20:59:21.289Z,5.75
2024-05-09T21:01:55.383Z,6.60
2024-05-09T21:04:26.462Z,7.35
2024-05-09T21:06:57.562Z,9.15
2024-05-09T21:09:29.496Z,9.73
2024-05-09T21:12:00.578Z,9.27
2024-05-09T21:14:31.571Z,8.90
2024-05-09T21:17:05.829Z,8.82
2024-05-09T21:19:36.831Z,9.10
2024-05-09T21:22:07.938Z,8.73
2024-05-09T21:24:39.128Z,7.93
2024-05-09T21:27:10.093Z,6.65
2024-05-09T21:29:42.687Z,6.45
2024-05-09T21:34:47.906Z,6.47
2024-05-09T21:37:19.516Z,6.88
2024-05-09T21:39:51.318Z,6.55
2024-05-09T21:42:22.848Z,7.03
2024-05-09T21:44:56.942Z,6.03
2024-05-09T21:47:31.737Z,6.15
2024-05-09T21:50:03.720Z,5.78
2024-05-09T21:52:36.257Z,6.85
2024-05-09T21:55:08.325Z,6.80
2024-05-09T21:57:39.217Z,6.35
2024-05-09T22:00:28.190Z,6.93
2024-05-09T22:03:10.695Z,6.93
2024-05-09T22:05:45.542Z,7.28
2024-05-09T22:08:16.663Z,6.78
2024-05-09T22:10:47.816Z,7.38
2024-05-09T22:13:20.753Z,7.20
2024-05-09T22:15:51.789Z,7.68
2024-05-09T22:18:25.896Z,8.07
2024-05-09T22:20:56.842Z,7.70
2024-05-09T22:23:27.776Z,6.43
2024-05-09T22:25:58.764Z,6.70
2024-05-09T22:28:29.867Z,7.13
2024-05-09T22:31:01.048Z,6.13
2024-05-09T22:33:35.298Z,6.53
2024-05-09T22:36:06.927Z,6.70
2024-05-09T22:38:38.220Z,7.15
2024-05-09T22:41:09.480Z,7.72
2024-05-09T22:43:40.603Z,7.75
2024-05-09T22:46:11.493Z,7.97
2024-05-09T22:48:45.631Z,6.93
2024-05-09T22:51:16.521Z,7.03
2024-05-09T22:53:47.420Z,6.68
2024-05-09T22:56:29.002Z,7.32
2024-05-09T22:59:00.518Z,9.25
2024-05-09T23:01:32.108Z,13.80
2024-05-09T23:04:07.099Z,12.25
2024-05-09T23:06:41.918Z,11.30
2024-05-09T23:09:13.782Z,10.13
2024-05-09T23:11:46.766Z,9.45
2024-05-09T23:14:18.294Z,7.82
2024-05-09T23:16:49.816Z,8.68
2024-05-09T23:19:24.527Z,10.57
2024-05-09T23:21:56.263Z,10.55
2024-05-09T23:24:27.808Z,9.30
2024-05-09T23:26:59.732Z,9.65
2024-05-09T23:29:31.261Z,9.73
2024-05-09T23:32:03.166Z,12.38
2024-05-09T23:34:38.015Z,14.60
2024-05-09T23:37:12.412Z,13.15
2024-05-09T23:39:44.104Z,13.30
2024-05-09T23:42:15.855Z,11.98
2024-05-09T23:44:47.497Z,12.15
2024-05-09T23:47:21.549Z,9.88
2024-05-09T23:49:56.287Z,9.90
2024-05-09T23:52:27.876Z,9.20
2024-05-09T23:54:59.677Z,6.95
2024-05-09T23:57:30.783Z,7.75
